EWG30F LSZH-EDDN
Flight info
| Callsign | EWG30F |
|---|---|
| Flight time | N/A |
| Altitude | 32000 |
| Route | DEGES Z1 SUDEN/N0416F230 Z79 GUPIN N869 LETKU LETKU1T |
| Aircraft | B738/M-SDE2E3FGHIRWXY/LB1 |
Departure
| Time | N/A |
|---|---|
| Airport | Zürich Airport (LSZH) |
Arrival
| Time | 2026-05-01 15:04 |
|---|---|
| Airport | Nuremberg Airport (EDDN) |
| Time | Latitude | Longitude | Altitude | Speed | Heading |
|---|---|---|---|---|---|
| 2026-05-01 14:48 | 49.32877 | 10.54032 | 24604 ft | 407 kts | 60° |
| 2026-05-01 14:49 | 49.33914 | 10.62471 | 23908 ft | 404 kts | 91° |
| 2026-05-01 14:49 | 49.33217 | 10.70810 | 22895 ft | 404 kts | 100° |
| 2026-05-01 14:50 | 49.32543 | 10.77955 | 21828 ft | 409 kts | 99° |
| 2026-05-01 14:50 | 49.31615 | 10.87794 | 20247 ft | 397 kts | 100° |
| 2026-05-01 14:51 | 49.31219 | 10.91914 | 19575 ft | 392 kts | 100° |
| 2026-05-01 14:51 | 49.30428 | 11.00071 | 18219 ft | 381 kts | 100° |
| 2026-05-01 14:52 | 49.31095 | 11.07847 | 16880 ft | 370 kts | 57° |
| 2026-05-01 14:52 | 49.32751 | 11.10684 | 16259 ft | 351 kts | 32° |
| 2026-05-01 14:52 | 49.36979 | 11.13513 | 14981 ft | 322 kts | 2° |
| 2026-05-01 14:53 | 49.39095 | 11.13296 | 14351 ft | 301 kts | 335° |
| 2026-05-01 14:53 | 49.40735 | 11.11694 | 13742 ft | 280 kts | 306° |
| 2026-05-01 14:53 | 49.41726 | 11.09302 | 13160 ft | 273 kts | 294° |
| 2026-05-01 14:53 | 49.42572 | 11.06730 | 12530 ft | 272 kts | 287° |
| 2026-05-01 14:54 | 49.42844 | 11.03928 | 11886 ft | 266 kts | 259° |
| 2026-05-01 14:54 | 49.42211 | 11.01363 | 11292 ft | 262 kts | 239° |
| 2026-05-01 14:54 | 49.41441 | 10.98826 | 10643 ft | 263 kts | 255° |
| 2026-05-01 14:54 | 49.41504 | 10.96045 | 10026 ft | 266 kts | 281° |
| 2026-05-01 14:55 | 49.41941 | 10.93354 | 9418 ft | 265 kts | 275° |
| 2026-05-01 14:55 | 49.42120 | 10.90552 | 8789 ft | 263 kts | 270° |
| 2026-05-01 14:55 | 49.42241 | 10.87738 | 8159 ft | 264 kts | 270° |
| 2026-05-01 14:55 | 49.42355 | 10.84946 | 7531 ft | 262 kts | 270° |
| 2026-05-01 14:56 | 49.42450 | 10.82193 | 6909 ft | 260 kts | 270° |
| 2026-05-01 14:56 | 49.42547 | 10.79418 | 6326 ft | 259 kts | 271° |
| 2026-05-01 14:56 | 49.42747 | 10.76722 | 5855 ft | 251 kts | 276° |
| 2026-05-01 14:56 | 49.43019 | 10.74167 | 5431 ft | 245 kts | 276° |
| 2026-05-01 14:57 | 49.43275 | 10.71622 | 5338 ft | 242 kts | 278° |
| 2026-05-01 14:57 | 49.45446 | 10.67841 | 5197 ft | 255 kts | 348° |
| 2026-05-01 14:57 | 49.47203 | 10.67958 | 5096 ft | 249 kts | 14° |
| 2026-05-01 14:58 | 49.48851 | 10.68534 | 4938 ft | 239 kts | 13° |
| 2026-05-01 14:58 | 49.50485 | 10.69065 | 4731 ft | 237 kts | 13° |
| 2026-05-01 14:58 | 49.52069 | 10.69580 | 4594 ft | 230 kts | 14° |
| 2026-05-01 14:58 | 49.53498 | 10.70596 | 4591 ft | 224 kts | 47° |
| 2026-05-01 14:59 | 49.54187 | 10.72662 | 4552 ft | 221 kts | 89° |
| 2026-05-01 14:59 | 49.53867 | 10.74888 | 4564 ft | 213 kts | 118° |
| 2026-05-01 14:59 | 49.53262 | 10.76999 | 4541 ft | 215 kts | 112° |
| 2026-05-01 14:59 | 49.52826 | 10.79211 | 4396 ft | 217 kts | 107° |
| 2026-05-01 15:00 | 49.52220 | 10.83658 | 3941 ft | 206 kts | 101° |
| 2026-05-01 15:00 | 49.52005 | 10.85823 | 3658 ft | 203 kts | 101° |
| 2026-05-01 15:00 | 49.51802 | 10.87955 | 3381 ft | 198 kts | 100° |
| 2026-05-01 15:01 | 49.51613 | 10.89908 | 3119 ft | 176 kts | 101° |
| 2026-05-01 15:01 | 49.51438 | 10.91718 | 2905 ft | 172 kts | 101° |
| 2026-05-01 15:01 | 49.51262 | 10.93531 | 2662 ft | 172 kts | 101° |
| 2026-05-01 15:01 | 49.51088 | 10.95331 | 2428 ft | 167 kts | 101° |
| 2026-05-01 15:02 | 49.50919 | 10.97066 | 2189 ft | 156 kts | 99° |
| 2026-05-01 15:02 | 49.50813 | 10.98174 | 2074 ft | 161 kts | 101° |
| 2026-05-01 15:02 | 49.50585 | 11.00490 | 1770 ft | 163 kts | 99° |
| 2026-05-01 15:02 | 49.50421 | 11.02159 | 1545 ft | 156 kts | 100° |
| 2026-05-01 15:03 | 49.50281 | 11.03783 | 1333 ft | 148 kts | 99° |
| 2026-05-01 15:03 | 49.50138 | 11.05346 | 1118 ft | 149 kts | 102° |
| 2026-05-01 15:03 | 49.49963 | 11.06826 | 1022 ft | 120 kts | 99° |
| 2026-05-01 15:03 | 49.49873 | 11.07783 | 1029 ft | 64 kts | 101° |
| 2026-05-01 15:04 | 49.49813 | 11.08379 | 1037 ft | 47 kts | 98° |
| 2026-05-01 15:04 | 49.49713 | 11.08561 | 1038 ft | 15 kts | 202° |
| 2026-05-01 15:04 | 49.49647 | 11.08454 | 1035 ft | 12 kts | 233° |
| 2026-05-01 15:04 | 49.49611 | 11.08384 | 1033 ft | 0 kts | 229° |
| 2026-05-01 15:05 | 49.49613 | 11.08387 | 1033 ft | 0 kts | 231° |
| 2026-05-01 15:05 | 49.49612 | 11.08386 | 1033 ft | 0 kts | 225° |
| 2026-05-01 15:05 | 49.49603 | 11.08375 | 1033 ft | 0 kts | 213° |
| 2026-05-01 15:05 | 49.49574 | 11.08361 | 1033 ft | 7 kts | 192° |
| 2026-05-01 15:06 | 49.49538 | 11.08327 | 1033 ft | 4 kts | 251° |
| 2026-05-01 15:06 | 49.49543 | 11.08194 | 1030 ft | 17 kts | 279° |
| 2026-05-01 15:06 | 49.49562 | 11.08001 | 1029 ft | 21 kts | 278° |
| 2026-05-01 15:06 | 49.49566 | 11.07809 | 1026 ft | 11 kts | 220° |
| 2026-05-01 15:07 | 49.49534 | 11.07795 | 1025 ft | 3 kts | 195° |
| 2026-05-01 15:07 | 49.49518 | 11.07789 | 1025 ft | 0 kts | 189° |
| 2026-05-01 15:07 | 49.49517 | 11.07789 | 1025 ft | 0 kts | 188° |